Time;durP1;ratioP1;P1;durP2;ratioP2;P2;SDS_P1;SDS_P2;PMS_P1;PMS_P2;Temp;Humidity;BMP_temperature;BMP_pressure;BME280_temperature;BME280_humidity;BME280_pressure;Samples;Min_cycle;Max_cycle;Signal;HPM_P1;HPM_P2
2022/11/16 00:00:49;;;;;;;17.00;14.18;;;;;;;;;;4743040;30;20537;-70
2022/11/16 00:03:17;;;;;;;18.50;14.35;;;;;;;;;;4734388;30;20076;-71
2022/11/16 00:05:44;;;;;;;19.08;14.77;;;;;;;;;;4731245;30;20131;-70
2022/11/16 00:08:11;;;;;;;19.30;15.23;;;;;;;;;;4745487;30;20136;-70
2022/11/16 00:10:39;;;;;;;15.60;13.45;;;;;;;;;;4732386;30;20494;-71
2022/11/16 00:13:06;;;;;;;14.80;13.25;;;;;;;;;;4730970;30;20135;-71
2022/11/16 00:15:33;;;;;;;12.95;11.52;;;;;;;;;;4727266;30;20083;-71
2022/11/16 00:18:01;;;;;;;20.60;15.13;;;;;;;;;;4729879;30;20044;-70
2022/11/16 00:20:28;;;;;;;20.88;15.02;;;;;;;;;;4727326;30;20064;-71
2022/11/16 00:22:55;;;;;;;17.15;13.10;;;;;;;;;;4729240;30;20040;-71
2022/11/16 00:25:22;;;;;;;17.23;14.93;;;;;;;;;;4729819;30;20052;-70
2022/11/16 00:27:50;;;;;;;19.95;16.88;;;;;;;;;;4728976;30;20057;-70
2022/11/16 00:30:17;;;;;;;19.38;15.20;;;;;;;;;;4728856;30;20048;-70
2022/11/16 00:32:45;;;;;;;19.25;15.30;;;;;;;;;;4727966;30;20048;-70
2022/11/16 00:35:12;;;;;;;17.48;13.65;;;;;;;;;;4733350;30;20156;-70
2022/11/16 00:37:39;;;;;;;18.33;14.55;;;;;;;;;;4726832;30;20525;-71
2022/11/16 00:40:07;;;;;;;16.20;13.73;;;;;;;;;;4729365;30;20056;-70
2022/11/16 00:42:34;;;;;;;19.05;16.20;;;;;;;;;;4784135;24;20105;-72
2022/11/16 00:45:02;;;;;;;17.77;14.40;;;;;;;;;;4791800;29;20046;-72
2022/11/16 00:47:29;;;;;;;17.30;13.50;;;;;;;;;;4786165;29;20413;-73
2022/11/16 00:49:56;;;;;;;16.80;13.80;;;;;;;;;;4752002;29;20058;-72
2022/11/16 00:52:24;;;;;;;15.70;13.35;;;;;;;;;;4780247;29;20052;-73
2022/11/16 00:54:51;;;;;;;15.27;13.45;;;;;;;;;;4764737;29;20112;-73
2022/11/16 00:57:19;;;;;;;16.17;13.77;;;;;;;;;;4787680;29;20551;-73
2022/11/16 00:59:46;;;;;;;15.98;12.52;;;;;;;;;;4763999;29;20061;-73
2022/11/16 01:02:14;;;;;;;15.00;13.20;;;;;;;;;;4781910;29;20043;-73
2022/11/16 01:04:41;;;;;;;17.45;14.45;;;;;;;;;;4781078;29;20053;-73
2022/11/16 01:07:08;;;;;;;17.63;14.18;;;;;;;;;;4779594;29;20047;-73
2022/11/16 01:09:36;;;;;;;16.42;14.63;;;;;;;;;;4785509;29;20074;-73
2022/11/16 01:12:09;;;;;;;18.23;16.13;;;;;;;;;;4804845;29;20504;-73
2022/11/16 01:14:38;;;;;;;14.98;12.90;;;;;;;;;;4791487;29;20499;-73
2022/11/16 01:17:05;;;;;;;13.88;12.18;;;;;;;;;;4779396;29;20046;-72
2022/11/16 01:19:33;;;;;;;13.57;12.23;;;;;;;;;;4779925;29;20047;-72
2022/11/16 01:22:00;;;;;;;14.95;13.43;;;;;;;;;;4781914;29;20051;-72
2022/11/16 01:24:28;;;;;;;15.00;12.90;;;;;;;;;;4758010;29;20051;-73
2022/11/16 01:26:56;;;;;;;14.65;13.05;;;;;;;;;;4765549;29;20055;-73
2022/11/16 01:29:29;;;;;;;13.85;12.43;;;;;;;;;;4786835;29;20130;-73
2022/11/16 01:31:59;;;;;;;14.25;12.80;;;;;;;;;;4781978;29;20054;-74
2022/11/16 01:34:27;;;;;;;14.40;12.63;;;;;;;;;;4789566;29;20454;-72
2022/11/16 01:36:59;;;;;;;14.40;12.52;;;;;;;;;;4776736;29;20070;-73
2022/11/16 01:39:30;;;;;;;14.82;13.05;;;;;;;;;;4782150;29;20050;-73
2022/11/16 01:42:00;;;;;;;13.10;11.73;;;;;;;;;;4780378;29;20051;-73
2022/11/16 01:44:31;;;;;;;14.05;12.55;;;;;;;;;;4777207;29;20065;-73
2022/11/16 01:47:13;;;;;;;14.55;12.10;;;;;;;;;;4781879;29;20259;-73
2022/11/16 01:49:42;;;;;;;14.90;13.38;;;;;;;;;;4782551;29;20051;-73
2022/11/16 01:52:12;;;;;;;16.20;14.48;;;;;;;;;;4764592;30;20106;-72
2022/11/16 01:54:42;;;;;;;13.50;12.07;;;;;;;;;;4780457;29;20061;-72
2022/11/16 01:57:12;;;;;;;16.48;13.35;;;;;;;;;;4791971;29;20126;-73
2022/11/16 01:59:46;;;;;;;13.98;12.57;;;;;;;;;;4772372;29;20063;-71
2022/11/16 02:02:17;;;;;;;15.15;13.30;;;;;;;;;;4760259;29;20055;-73
2022/11/16 02:04:45;;;;;;;14.73;12.20;;;;;;;;;;4790196;29;20043;-73
2022/11/16 02:07:22;;;;;;;14.52;13.02;;;;;;;;;;4782377;29;20046;-73
2022/11/16 02:10:09;;;;;;;17.67;12.52;;;;;;;;;;4788252;29;20065;-73
2022/11/16 02:12:47;;;;;;;12.27;10.80;;;;;;;;;;4783208;29;20035;-73
2022/11/16 02:15:22;;;;;;;12.68;10.52;;;;;;;;;;4789312;29;20123;-72
2022/11/16 02:18:00;;;;;;;11.30;10.20;;;;;;;;;;4781255;29;20059;-73
2022/11/16 02:20:38;;;;;;;13.77;12.23;;;;;;;;;;4789559;29;20411;-73
2022/11/16 02:23:15;;;;;;;12.73;11.45;;;;;;;;;;4784701;29;20051;-73
2022/11/16 02:25:45;;;;;;;14.32;12.23;;;;;;;;;;4786345;29;20046;-72
2022/11/16 02:28:25;;;;;;;14.55;12.65;;;;;;;;;;4769191;29;20055;-72
2022/11/16 02:30:53;;;;;;;14.93;13.10;;;;;;;;;;4785508;29;20101;-72
2022/11/16 02:33:24;;;;;;;17.02;14.13;;;;;;;;;;4787618;29;20141;-73
2022/11/16 02:35:54;;;;;;;16.17;12.70;;;;;;;;;;4785729;29;20565;-73
2022/11/16 02:38:27;;;;;;;13.82;12.27;;;;;;;;;;4781028;29;20067;-73
2022/11/16 02:40:58;;;;;;;17.63;14.38;;;;;;;;;;4787453;29;20051;-73
2022/11/16 02:43:34;;;;;;;13.85;12.45;;;;;;;;;;4783114;29;20108;-73
2022/11/16 02:46:03;;;;;;;14.20;12.63;;;;;;;;;;4786645;29;20134;-72
2022/11/16 02:48:34;;;;;;;16.23;14.23;;;;;;;;;;4786543;29;20667;-70
2022/11/16 02:51:05;;;;;;;19.55;15.13;;;;;;;;;;4776168;29;20051;-73
2022/11/16 02:53:36;;;;;;;14.35;12.13;;;;;;;;;;4781178;29;20099;-72
2022/11/16 02:56:04;;;;;;;13.48;12.05;;;;;;;;;;4793684;29;20233;-73
2022/11/16 02:58:31;;;;;;;13.00;11.57;;;;;;;;;;4780671;29;20055;-73
2022/11/16 03:00:59;;;;;;;12.85;11.52;;;;;;;;;;4780523;29;20055;-73
2022/11/16 03:03:32;;;;;;;11.32;10.05;;;;;;;;;;4776790;29;20076;-73
2022/11/16 03:06:11;;;;;;;12.32;11.10;;;;;;;;;;4789191;29;20047;-72
2022/11/16 03:08:42;;;;;;;12.40;10.95;;;;;;;;;;4779757;29;20057;-72
2022/11/16 03:14:01;;;;;;;11.30;10.25;;;;;;;;;;4781831;29;20456;-73
2022/11/16 03:16:38;;;;;;;13.85;10.40;;;;;;;;;;4780410;29;20105;-72
2022/11/16 03:19:07;;;;;;;13.48;12.00;;;;;;;;;;4775982;29;20445;-73
2022/11/16 03:21:37;;;;;;;11.10;9.88;;;;;;;;;;4774968;29;20057;-72
2022/11/16 03:24:05;;;;;;;11.65;10.45;;;;;;;;;;4777582;29;20058;-72
2022/11/16 03:26:41;;;;;;;11.65;10.50;;;;;;;;;;4779176;29;20050;-72
2022/11/16 03:29:38;;;;;;;10.80;9.80;;;;;;;;;;4788669;29;20457;-72
2022/11/16 03:32:20;;;;;;;11.93;10.73;;;;;;;;;;4774012;29;20082;-73
2022/11/16 03:34:55;;;;;;;11.52;10.07;;;;;;;;;;4786174;29;20133;-72
2022/11/16 03:37:24;;;;;;;11.57;10.30;;;;;;;;;;4794227;29;20440;-73
2022/11/16 03:39:52;;;;;;;11.57;10.43;;;;;;;;;;4767519;29;20047;-73
2022/11/16 03:42:22;;;;;;;13.18;11.85;;;;;;;;;;4780049;29;22178;-73
2022/11/16 03:44:49;;;;;;;12.27;11.02;;;;;;;;;;4797523;29;20057;-73
2022/11/16 03:47:17;;;;;;;13.38;12.23;;;;;;;;;;4790654;29;20062;-73
2022/11/16 03:49:46;;;;;;;12.55;11.20;;;;;;;;;;4790226;29;20075;-73
2022/11/16 03:52:16;;;;;;;10.00;9.00;;;;;;;;;;4786817;29;20038;-73
2022/11/16 03:54:44;;;;;;;12.77;11.10;;;;;;;;;;4778424;29;20055;-73
2022/11/16 03:57:16;;;;;;;13.52;12.18;;;;;;;;;;4779702;29;20035;-73
2022/11/16 03:59:46;;;;;;;11.18;10.10;;;;;;;;;;4787738;29;20096;-73
2022/11/16 04:02:13;;;;;;;12.75;11.57;;;;;;;;;;4793970;29;20058;-73
2022/11/16 04:24:14;;;;;;;12.38;11.15;;;;;;;;;;4781039;29;20058;-72
2022/11/16 04:29:39;;;;;;;12.25;10.95;;;;;;;;;;4769064;29;20056;-74
2022/11/16 04:37:48;;;;;;;10.10;9.18;;;;;;;;;;4781427;29;20147;-72
2022/11/16 04:40:26;;;;;;;10.85;9.82;;;;;;;;;;4791481;29;20133;-73
2022/11/16 04:43:04;;;;;;;9.75;8.88;;;;;;;;;;4786730;29;20607;-72
2022/11/16 04:48:24;;;;;;;10.20;8.43;;;;;;;;;;4766985;29;20074;-72
2022/11/16 04:50:53;;;;;;;10.60;9.63;;;;;;;;;;4784794;29;20126;-73
2022/11/16 04:53:25;;;;;;;11.70;10.65;;;;;;;;;;4770571;30;20055;-73
2022/11/16 04:56:03;;;;;;;10.73;9.68;;;;;;;;;;4774079;29;20143;-72
2022/11/16 04:58:32;;;;;;;9.68;8.88;;;;;;;;;;4788146;29;20034;-73
2022/11/16 05:01:00;;;;;;;9.95;9.13;;;;;;;;;;4790133;29;20533;-73
2022/11/16 05:03:27;;;;;;;11.88;10.80;;;;;;;;;;4781689;29;20081;-73
2022/11/16 05:05:55;;;;;;;10.85;9.85;;;;;;;;;;4761810;29;20055;-72
2022/11/16 05:08:24;;;;;;;10.98;10.05;;;;;;;;;;4771611;30;20122;-73
2022/11/16 05:10:53;;;;;;;9.77;8.98;;;;;;;;;;4781665;29;20050;-73
2022/11/16 05:13:20;;;;;;;9.95;9.13;;;;;;;;;;4786166;29;20066;-73
2022/11/16 05:15:49;;;;;;;9.82;9.05;;;;;;;;;;4776316;29;20043;-73
2022/11/16 05:18:16;;;;;;;8.98;8.23;;;;;;;;;;4780253;29;20054;-73
2022/11/16 05:20:59;;;;;;;11.52;10.55;;;;;;;;;;4792329;29;20051;-73
2022/11/16 05:26:18;;;;;;;9.13;8.35;;;;;;;;;;4790631;29;20524;-73
2022/11/16 05:28:45;;;;;;;11.65;10.57;;;;;;;;;;4778809;29;20411;-72
2022/11/16 05:31:13;;;;;;;11.15;10.02;;;;;;;;;;4770943;29;20046;-72
2022/11/16 05:33:41;;;;;;;9.93;9.02;;;;;;;;;;4771536;29;20047;-73
2022/11/16 05:36:09;;;;;;;11.07;10.10;;;;;;;;;;4779264;29;20062;-73
2022/11/16 05:38:37;;;;;;;12.43;11.35;;;;;;;;;;4773055;29;20587;-73
2022/11/16 05:41:05;;;;;;;10.38;9.48;;;;;;;;;;4784592;29;20050;-72
2022/11/16 05:43:34;;;;;;;10.45;9.57;;;;;;;;;;4770604;30;20090;-73
2022/11/16 05:46:10;;;;;;;10.07;9.23;;;;;;;;;;4773175;29;20150;-72
2022/11/16 05:48:38;;;;;;;9.93;9.07;;;;;;;;;;4781696;29;20125;-72
2022/11/16 05:51:06;;;;;;;8.50;7.75;;;;;;;;;;4773314;29;20050;-72
2022/11/16 05:53:34;;;;;;;10.90;9.80;;;;;;;;;;4778811;29;20047;-72
2022/11/16 05:56:01;;;;;;;8.00;7.35;;;;;;;;;;4760190;29;20039;-72
2022/11/16 05:58:31;;;;;;;9.48;7.70;;;;;;;;;;4777911;29;20078;-73
2022/11/16 06:01:00;;;;;;;7.57;6.90;;;;;;;;;;4770899;29;20047;-72
2022/11/16 06:03:28;;;;;;;7.50;6.95;;;;;;;;;;4765783;29;20104;-72
2022/11/16 06:05:56;;;;;;;8.57;7.75;;;;;;;;;;4777855;29;20138;-74
2022/11/16 06:08:25;;;;;;;8.32;7.65;;;;;;;;;;4756610;29;20063;-74
2022/11/16 06:10:55;;;;;;;9.45;8.63;;;;;;;;;;4770594;29;20515;-72
2022/11/16 06:13:22;;;;;;;9.10;8.40;;;;;;;;;;4772791;29;20413;-73
2022/11/16 06:15:54;;;;;;;9.02;8.18;;;;;;;;;;4767232;29;20127;-73
2022/11/16 06:18:22;;;;;;;8.23;7.57;;;;;;;;;;4771315;29;20035;-73
2022/11/16 06:20:49;;;;;;;8.18;7.40;;;;;;;;;;4783451;29;20062;-72
2022/11/16 06:23:20;;;;;;;8.45;7.75;;;;;;;;;;4768764;29;20047;-75
2022/11/16 06:25:53;;;;;;;7.38;6.68;;;;;;;;;;4771528;29;20054;-73
2022/11/16 06:28:21;;;;;;;9.30;8.45;;;;;;;;;;4747548;29;20058;-74
2022/11/16 06:30:49;;;;;;;8.80;8.05;;;;;;;;;;4783222;29;20055;-74
2022/11/16 06:33:16;;;;;;;10.45;9.07;;;;;;;;;;4795592;29;20045;-70
2022/11/16 06:35:44;;;;;;;9.55;8.77;;;;;;;;;;4792747;29;20096;-71
2022/11/16 06:38:19;;;;;;;;;;;;;;;;;;4767117;29;20067;-72
2022/11/16 06:40:52;;;;;;;6.63;6.03;;;;;;;;;;4762087;30;19940;-71
2022/11/16 06:43:22;;;;;;;7.68;6.95;;;;;;;;;;4802284;24;20054;-69
2022/11/16 06:45:54;;;;;;;8.10;7.45;;;;;;;;;;4787930;29;20044;-71
2022/11/16 06:48:21;;;;;;;;;;;;;;;;;;4777718;29;20566;-70
2022/11/16 06:50:50;;;;;;;6.10;5.60;;;;;;;;;;4779262;29;19933;-70
2022/11/16 06:53:19;;;;;;;7.13;6.53;;;;;;;;;;4787440;29;20133;-70
2022/11/16 06:55:54;;;;;;;8.00;7.30;;;;;;;;;;4795520;29;20282;-70
2022/11/16 06:58:21;;;;;;;8.77;7.97;;;;;;;;;;4789836;29;20081;-70
2022/11/16 07:00:49;;;;;;;8.43;7.75;;;;;;;;;;4773796;29;20055;-71
2022/11/16 07:03:16;;;;;;;9.55;8.75;;;;;;;;;;4779291;29;20043;-70
2022/11/16 07:05:44;;;;;;;9.68;8.93;;;;;;;;;;4786750;29;20051;-70
2022/11/16 07:08:15;;;;;;;8.95;8.25;;;;;;;;;;4777833;29;20062;-71
2022/11/16 07:10:43;;;;;;;9.82;8.95;;;;;;;;;;4763334;29;20458;-70
2022/11/16 07:13:10;;;;;;;9.93;9.18;;;;;;;;;;4793152;29;20039;-70
2022/11/16 07:15:38;;;;;;;9.98;9.18;;;;;;;;;;4786417;29;20071;-70
2022/11/16 07:18:07;;;;;;;9.63;8.88;;;;;;;;;;4760407;30;20039;-68
2022/11/16 07:20:37;;;;;;;10.07;9.25;;;;;;;;;;4764035;30;20104;-70
2022/11/16 07:23:05;;;;;;;10.20;9.25;;;;;;;;;;4764980;30;20504;-69
2022/11/16 07:25:40;;;;;;;8.45;7.78;;;;;;;;;;4765394;30;20151;-69
2022/11/16 07:28:08;;;;;;;8.93;8.02;;;;;;;;;;4780302;29;20053;-70
2022/11/16 07:30:35;;;;;;;8.63;7.85;;;;;;;;;;4780051;30;20060;-69
2022/11/16 07:33:07;;;;;;;8.27;7.53;;;;;;;;;;4795142;29;20124;-70
2022/11/16 07:35:52;;;;;;;8.57;7.88;;;;;;;;;;4781375;30;20051;-69
2022/11/16 07:38:20;;;;;;;8.70;7.90;;;;;;;;;;4779863;30;20054;-69
2022/11/16 07:40:47;;;;;;;8.65;7.93;;;;;;;;;;4780139;30;20139;-70
2022/11/16 07:43:17;;;;;;;8.27;7.60;;;;;;;;;;4779261;30;20120;-69
2022/11/16 07:46:06;;;;;;;8.77;7.95;;;;;;;;;;4761301;30;20062;-70
2022/11/16 07:48:53;;;;;;;8.20;7.47;;;;;;;;;;4747582;30;20071;-69
2022/11/16 07:51:41;;;;;;;7.55;6.82;;;;;;;;;;4778714;29;20122;-69
2022/11/16 07:54:25;;;;;;;8.77;8.00;;;;;;;;;;4785290;29;20157;-69
2022/11/16 07:56:52;;;;;;;8.55;7.82;;;;;;;;;;4779705;30;20086;-69
2022/11/16 07:59:19;;;;;;;7.97;7.28;;;;;;;;;;4779129;30;20052;-69
2022/11/16 08:01:48;;;;;;;8.90;8.23;;;;;;;;;;4778709;30;20079;-69
2022/11/16 08:04:16;;;;;;;8.45;7.78;;;;;;;;;;4779979;30;20151;-70
2022/11/16 08:06:45;;;;;;;9.20;8.40;;;;;;;;;;4774883;29;20047;-70
2022/11/16 08:09:13;;;;;;;8.80;8.00;;;;;;;;;;4780774;29;20047;-69
2022/11/16 08:11:41;;;;;;;8.93;8.05;;;;;;;;;;4793406;29;20039;-70
2022/11/16 08:14:08;;;;;;;8.27;7.68;;;;;;;;;;4780022;29;20051;-70
2022/11/16 08:16:36;;;;;;;8.73;8.02;;;;;;;;;;4778229;29;20182;-70
2022/11/16 08:19:09;;;;;;;9.18;8.25;;;;;;;;;;4780267;29;20142;-70
2022/11/16 08:21:37;;;;;;;8.07;7.35;;;;;;;;;;4787583;29;20058;-70
2022/11/16 08:24:04;;;;;;;8.48;7.75;;;;;;;;;;4776134;29;20078;-68
2022/11/16 08:26:35;;;;;;;8.57;7.77;;;;;;;;;;4778916;29;20069;-69
2022/11/16 08:29:07;;;;;;;11.43;7.95;;;;;;;;;;4786046;29;20052;-69
2022/11/16 08:31:38;;;;;;;8.85;8.00;;;;;;;;;;4791370;29;20104;-69
2022/11/16 08:34:12;;;;;;;9.30;8.50;;;;;;;;;;4780271;29;20479;-68
2022/11/16 08:36:43;;;;;;;9.15;8.25;;;;;;;;;;4789636;29;20062;-69
2022/11/16 08:39:12;;;;;;;10.45;9.32;;;;;;;;;;4793169;29;20729;-70
2022/11/16 08:41:41;;;;;;;13.25;10.02;;;;;;;;;;4781422;29;20051;-69
2022/11/16 08:44:09;;;;;;;12.13;9.68;;;;;;;;;;4768317;30;20067;-69
2022/11/16 08:46:39;;;;;;;11.73;10.05;;;;;;;;;;4782731;29;20178;-69
2022/11/16 08:49:15;;;;;;;13.45;12.27;;;;;;;;;;4781822;30;20043;-68
2022/11/16 08:51:43;;;;;;;11.30;10.15;;;;;;;;;;4778428;29;20420;-69
2022/11/16 08:54:10;;;;;;;11.35;10.27;;;;;;;;;;4783453;29;20054;-68
2022/11/16 08:56:40;;;;;;;13.90;11.68;;;;;;;;;;4799631;29;20066;-69
2022/11/16 08:59:08;;;;;;;12.38;10.38;;;;;;;;;;4781699;29;20043;-69
2022/11/16 09:01:39;;;;;;;12.83;9.40;;;;;;;;;;4782504;30;20051;-70
2022/11/16 09:04:07;;;;;;;11.50;9.52;;;;;;;;;;4784275;30;20477;-70
2022/11/16 09:06:35;;;;;;;11.50;9.52;;;;;;;;;;4784405;30;20613;-70
2022/11/16 09:09:03;;;;;;;16.45;11.55;;;;;;;;;;4783753;30;20087;-67
2022/11/16 09:11:30;;;;;;;11.57;10.30;;;;;;;;;;4783542;30;20100;-70
2022/11/16 09:13:57;;;;;;;10.00;9.00;;;;;;;;;;4783592;30;20064;-70
2022/11/16 09:16:26;;;;;;;11.40;9.57;;;;;;;;;;4783646;29;20484;-69
2022/11/16 09:18:54;;;;;;;12.52;11.18;;;;;;;;;;4782997;30;20046;-70
2022/11/16 09:21:29;;;;;;;10.80;9.07;;;;;;;;;;4782453;30;20222;-70
2022/11/16 09:23:56;;;;;;;13.40;12.13;;;;;;;;;;4783546;30;20054;-70
2022/11/16 09:26:25;;;;;;;14.50;13.00;;;;;;;;;;4784271;29;20067;-70
2022/11/16 09:28:54;;;;;;;10.93;9.82;;;;;;;;;;4783707;29;20043;-70
2022/11/16 09:31:22;;;;;;;12.88;11.18;;;;;;;;;;4763915;30;20067;-70
2022/11/16 09:33:50;;;;;;;11.73;9.55;;;;;;;;;;4765550;30;20087;-71
2022/11/16 09:36:19;;;;;;;12.68;10.45;;;;;;;;;;4765342;30;20068;-70
2022/11/16 09:38:46;;;;;;;14.35;12.85;;;;;;;;;;4766293;30;20054;-71
2022/11/16 09:41:52;;;;;;;12.55;9.95;;;;;;;;;;4783470;29;20061;-71
2022/11/16 09:44:38;;;;;;;11.18;10.13;;;;;;;;;;4783350;30;20077;-72
2022/11/16 09:47:09;;;;;;;11.00;9.02;;;;;;;;;;4782835;29;20047;-71
2022/11/16 09:49:38;;;;;;;13.07;11.40;;;;;;;;;;4783955;30;20142;-72
2022/11/16 09:52:09;;;;;;;12.40;11.07;;;;;;;;;;4783754;30;20051;-73
2022/11/16 09:54:39;;;;;;;12.75;11.18;;;;;;;;;;4782587;30;20125;-73
2022/11/16 09:57:09;;;;;;;11.63;10.45;;;;;;;;;;4783398;30;20051;-73
2022/11/16 09:59:51;;;;;;;11.68;10.40;;;;;;;;;;4782532;30;20051;-73
2022/11/16 10:02:27;;;;;;;10.10;9.20;;;;;;;;;;4781772;30;20073;-74
2022/11/16 10:04:59;;;;;;;15.80;12.35;;;;;;;;;;4781527;30;20135;-73
2022/11/16 10:07:36;;;;;;;12.57;11.27;;;;;;;;;;4782945;30;20047;-72
2022/11/16 10:10:04;;;;;;;10.52;9.55;;;;;;;;;;4783230;29;20084;-73
2022/11/16 10:12:42;;;;;;;13.50;10.70;;;;;;;;;;4778007;29;20051;-73
2022/11/16 10:15:12;;;;;;;11.65;10.65;;;;;;;;;;4769899;30;20151;-72
2022/11/16 10:17:48;;;;;;;13.65;12.43;;;;;;;;;;4782925;30;20569;-73
2022/11/16 10:20:35;;;;;;;17.70;12.23;;;;;;;;;;4781512;30;20152;-73
2022/11/16 10:23:14;;;;;;;12.07;10.38;;;;;;;;;;4782308;30;20055;-74
2022/11/16 10:25:42;;;;;;;14.05;12.18;;;;;;;;;;4782104;30;20457;-73
2022/11/16 10:28:20;;;;;;;13.38;12.10;;;;;;;;;;4782410;29;20043;-73
2022/11/16 10:31:07;;;;;;;11.88;10.70;;;;;;;;;;4782268;30;20078;-74
2022/11/16 10:33:36;;;;;;;12.15;10.75;;;;;;;;;;4782664;29;20516;-74
2022/11/16 10:36:05;;;;;;;14.13;12.73;;;;;;;;;;4783237;29;20074;-75
2022/11/16 10:38:32;;;;;;;12.55;11.35;;;;;;;;;;4782446;30;20039;-74
2022/11/16 10:41:19;;;;;;;16.67;15.23;;;;;;;;;;4782381;29;20134;-75
2022/11/16 10:43:46;;;;;;;10.80;9.75;;;;;;;;;;4782283;30;20050;-74
2022/11/16 10:46:26;;;;;;;13.40;11.75;;;;;;;;;;4780722;30;20043;-75
2022/11/16 10:49:12;;;;;;;12.57;11.43;;;;;;;;;;4782350;30;20504;-74
2022/11/16 10:51:39;;;;;;;12.40;11.30;;;;;;;;;;4781722;30;20059;-74
2022/11/16 10:54:13;;;;;;;12.38;10.52;;;;;;;;;;4781704;30;20074;-74
2022/11/16 10:56:45;;;;;;;11.20;9.82;;;;;;;;;;4782244;29;20520;-74
2022/11/16 10:59:13;;;;;;;12.45;11.25;;;;;;;;;;4778007;30;20505;-74
2022/11/16 11:01:56;;;;;;;13.85;12.73;;;;;;;;;;4780226;30;20509;-73
2022/11/16 11:04:24;;;;;;;15.90;14.52;;;;;;;;;;4782912;30;20584;-74
2022/11/16 11:06:51;;;;;;;15.10;13.63;;;;;;;;;;4768131;30;20061;-73
2022/11/16 11:09:30;;;;;;;12.75;11.35;;;;;;;;;;4773778;30;20078;-73
2022/11/16 11:15:04;;;;;;;13.75;12.13;;;;;;;;;;4791329;30;20047;-73
2022/11/16 11:17:33;;;;;;;14.07;12.67;;;;;;;;;;4792700;29;20153;-73
2022/11/16 11:20:03;;;;;;;14.90;13.45;;;;;;;;;;4793886;29;20067;-73
2022/11/16 11:22:40;;;;;;;13.57;12.48;;;;;;;;;;4795015;29;20063;-73
2022/11/16 11:25:19;;;;;;;13.63;12.48;;;;;;;;;;4797213;29;20138;-73
2022/11/16 11:27:47;;;;;;;14.48;12.82;;;;;;;;;;4794583;30;20531;-73
2022/11/16 11:30:19;;;;;;;13.05;11.93;;;;;;;;;;4784117;30;20039;-73
2022/11/16 11:32:51;;;;;;;15.38;14.02;;;;;;;;;;4780227;30;20051;-73
2022/11/16 11:35:37;;;;;;;16.48;14.60;;;;;;;;;;4781184;29;20631;-73
2022/11/16 11:38:05;;;;;;;14.82;13.32;;;;;;;;;;4783574;29;20138;-73
2022/11/16 11:40:34;;;;;;;16.15;14.77;;;;;;;;;;4782325;29;20047;-73
2022/11/16 11:43:04;;;;;;;14.20;13.05;;;;;;;;;;4781100;29;20055;-73
2022/11/16 11:45:37;;;;;;;15.85;14.27;;;;;;;;;;4778824;30;20050;-73
2022/11/16 11:48:24;;;;;;;16.83;15.20;;;;;;;;;;4779820;30;20051;-73
2022/11/16 11:51:00;;;;;;;15.30;13.85;;;;;;;;;;4780535;30;20557;-73
2022/11/16 11:53:34;;;;;;;14.27;13.10;;;;;;;;;;4756369;30;20513;-73
2022/11/16 11:56:02;;;;;;;14.45;13.02;;;;;;;;;;4778901;29;20076;-73
2022/11/16 11:58:31;;;;;;;15.80;14.43;;;;;;;;;;4780119;29;20063;-73
2022/11/16 12:01:17;;;;;;;17.48;15.20;;;;;;;;;;4778091;29;20051;-73
2022/11/16 12:03:57;;;;;;;33.65;30.98;;;;;;;;;;4784456;29;20051;-72
2022/11/16 12:06:28;;;;;;;16.58;14.73;;;;;;;;;;4784577;29;20060;-72
2022/11/16 12:09:01;;;;;;;14.88;13.52;;;;;;;;;;4784293;30;20043;-71
2022/11/16 12:11:38;;;;;;;14.55;13.18;;;;;;;;;;4782821;30;20077;-72
2022/11/16 12:14:08;;;;;;;17.65;15.85;;;;;;;;;;4782546;29;20051;-73
2022/11/16 12:16:56;;;;;;;15.68;14.27;;;;;;;;;;4781769;30;20096;-72
2022/11/16 12:19:29;;;;;;;15.15;13.75;;;;;;;;;;4775585;30;20051;-72
2022/11/16 12:22:06;;;;;;;16.45;15.00;;;;;;;;;;4783920;29;20104;-72
2022/11/16 12:24:52;;;;;;;16.70;15.18;;;;;;;;;;4783105;30;20059;-72
2022/11/16 12:27:28;;;;;;;18.25;16.58;;;;;;;;;;4782538;30;20056;-72
2022/11/16 12:30:10;;;;;;;19.17;17.42;;;;;;;;;;4782488;30;20051;-71
2022/11/16 12:32:37;;;;;;;;;;;;;;;;;;4782294;30;20055;-72
2022/11/16 12:35:05;;;;;;;10.18;9.27;;;;;;;;;;4783798;29;19926;-72
2022/11/16 12:37:40;;;;;;;12.18;11.07;;;;;;;;;;4782186;29;20488;-72
2022/11/16 12:40:29;;;;;;;12.38;11.23;;;;;;;;;;4784159;30;20051;-72
2022/11/16 12:42:56;;;;;;;11.40;10.40;;;;;;;;;;4791326;24;20399;-85
2022/11/16 12:45:23;;;;;;;13.38;12.07;;;;;;;;;;4796149;29;20051;-85
2022/11/16 12:48:06;;;;;;;9.57;8.75;;;;;;;;;;4781222;30;20083;-86
2022/11/16 12:50:52;;;;;;;12.40;11.40;;;;;;;;;;4765516;30;20071;-85
2022/11/16 12:53:27;;;;;;;11.60;10.52;;;;;;;;;;4780918;30;20494;-85
2022/11/16 12:55:58;;;;;;;16.90;15.43;;;;;;;;;;4780921;29;20495;-85
2022/11/16 12:58:34;;;;;;;15.98;14.63;;;;;;;;;;4782634;30;20055;-85
2022/11/16 13:01:07;;;;;;;15.95;14.52;;;;;;;;;;4778216;30;20051;-86
2022/11/16 13:03:47;;;;;;;15.10;13.73;;;;;;;;;;4780965;30;20064;-85
2022/11/16 13:06:19;;;;;;;13.57;12.50;;;;;;;;;;4779470;30;20043;-86
2022/11/16 13:08:47;;;;;;;16.40;15.02;;;;;;;;;;4777334;30;20051;-86
2022/11/16 13:11:17;;;;;;;15.27;13.98;;;;;;;;;;4776907;30;20043;-86
2022/11/16 13:13:46;;;;;;;14.85;13.60;;;;;;;;;;4777666;29;20073;-86
2022/11/16 13:16:20;;;;;;;16.67;15.32;;;;;;;;;;4780616;30;20035;-86
2022/11/16 13:18:48;;;;;;;16.88;15.65;;;;;;;;;;4780520;30;20506;-87
2022/11/16 13:21:38;;;;;;;16.70;15.32;;;;;;;;;;4779914;30;20665;-86
2022/11/16 13:24:05;;;;;;;12.55;11.48;;;;;;;;;;4779748;30;20461;-86
2022/11/16 13:26:32;;;;;;;16.20;14.88;;;;;;;;;;4777137;30;20510;-86
2022/11/16 13:29:12;;;;;;;16.40;15.13;;;;;;;;;;4780187;30;20116;-86
2022/11/16 13:31:48;;;;;;;17.40;15.93;;;;;;;;;;4778230;30;20074;-86
2022/11/16 13:34:20;;;;;;;17.30;15.98;;;;;;;;;;4759928;30;20059;-85
2022/11/16 13:36:47;;;;;;;20.77;18.92;;;;;;;;;;4764998;30;20495;-87
2022/11/16 13:39:15;;;;;;;17.02;15.52;;;;;;;;;;4780229;30;20051;-86
2022/11/16 13:41:49;;;;;;;18.42;16.63;;;;;;;;;;4750570;30;20043;-86
2022/11/16 13:44:17;;;;;;;17.77;16.45;;;;;;;;;;4769293;29;20123;-87
2022/11/16 13:46:49;;;;;;;14.45;13.23;;;;;;;;;;4780497;29;20465;-86
2022/11/16 13:49:34;;;;;;;16.25;14.82;;;;;;;;;;4777370;30;20100;-86
2022/11/16 13:52:03;;;;;;;16.92;15.57;;;;;;;;;;4777302;30;20504;-87
2022/11/16 13:54:50;;;;;;;16.02;14.68;;;;;;;;;;4775471;30;20039;-86
2022/11/16 13:57:19;;;;;;;20.42;18.73;;;;;;;;;;4777107;30;20154;-86
2022/11/16 13:59:48;;;;;;;20.48;18.98;;;;;;;;;;4780337;30;20047;-86
2022/11/16 14:02:33;;;;;;;18.80;17.38;;;;;;;;;;4773252;30;20060;-87
2022/11/16 14:05:01;;;;;;;14.13;13.07;;;;;;;;;;4767894;30;20408;-86
2022/11/16 14:07:30;;;;;;;16.13;14.82;;;;;;;;;;4771252;30;20047;-86
2022/11/16 14:09:58;;;;;;;16.85;15.65;;;;;;;;;;4786113;29;20073;-86
2022/11/16 14:12:46;;;;;;;19.30;17.73;;;;;;;;;;4779493;30;20074;-86
2022/11/16 14:15:21;;;;;;;16.33;15.07;;;;;;;;;;4752424;30;20055;-87
2022/11/16 14:17:50;;;;;;;16.33;15.07;;;;;;;;;;4786331;29;20130;-86
2022/11/16 14:20:38;;;;;;;18.58;17.23;;;;;;;;;;4779026;30;20422;-86
2022/11/16 14:23:10;;;;;;;15.68;14.35;;;;;;;;;;4770585;30;20059;-85
2022/11/16 14:25:37;;;;;;;;;;;;;;;;;;4781098;30;20055;-86
2022/11/16 14:28:17;;;;;;;10.52;9.63;;;;;;;;;;4755402;30;19929;-86
2022/11/16 14:31:03;;;;;;;12.45;11.45;;;;;;;;;;4752402;30;20050;-85
2022/11/16 14:33:32;;;;;;;13.95;12.68;;;;;;;;;;4774234;30;20048;-85
2022/11/16 14:36:02;;;;;;;17.17;15.75;;;;;;;;;;4775417;30;20483;-85
2022/11/16 14:38:31;;;;;;;22.13;20.08;;;;;;;;;;4767150;30;20447;-86
2022/11/16 14:41:00;;;;;;;18.95;17.40;;;;;;;;;;4775703;29;20151;-86
2022/11/16 14:43:38;;;;;;;19.45;17.80;;;;;;;;;;4771968;29;20059;-85
2022/11/16 14:46:08;;;;;;;15.70;14.48;;;;;;;;;;4789438;29;20055;-86
2022/11/16 14:48:43;;;;;;;16.73;15.27;;;;;;;;;;4781810;29;20590;-87
2022/11/16 14:51:13;;;;;;;16.73;15.48;;;;;;;;;;4778152;29;20059;-86
2022/11/16 14:53:44;;;;;;;18.67;17.25;;;;;;;;;;4793888;29;20055;-86
2022/11/16 14:56:13;;;;;;;16.33;14.93;;;;;;;;;;4775448;29;20122;-85
2022/11/16 14:58:50;;;;;;;17.23;15.90;;;;;;;;;;4769562;30;20499;-86
2022/11/16 15:01:17;;;;;;;15.48;14.25;;;;;;;;;;4767873;30;20171;-83
2022/11/16 15:04:08;;;;;;;14.52;13.48;;;;;;;;;;4760540;30;20052;-82
2022/11/16 15:06:43;;;;;;;17.75;16.30;;;;;;;;;;4774652;30;20072;-83
2022/11/16 15:09:15;;;;;;;16.55;15.30;;;;;;;;;;4765723;30;20105;-83
2022/11/16 15:14:29;;;;;;;11.93;10.88;;;;;;;;;;4776010;29;19937;-82
2022/11/16 15:16:58;;;;;;;10.88;9.80;;;;;;;;;;4748051;30;20051;-82
2022/11/16 15:19:29;;;;;;;14.05;12.95;;;;;;;;;;4776951;30;20063;-82
2022/11/16 15:22:00;;;;;;;14.25;13.05;;;;;;;;;;4775072;30;20071;-85
2022/11/16 15:24:27;;;;;;;12.63;11.65;;;;;;;;;;4776357;29;20110;-83
2022/11/16 15:27:09;;;;;;;15.13;13.93;;;;;;;;;;4779886;30;20054;-82
2022/11/16 15:29:36;;;;;;;15.85;14.43;;;;;;;;;;4775724;29;20623;-82
2022/11/16 15:32:04;;;;;;;18.52;17.08;;;;;;;;;;4747182;30;20044;-82
2022/11/16 15:34:31;;;;;;;19.75;18.23;;;;;;;;;;4767475;30;20134;-82